sensor_id;sensor_type;location;lat;lon;timestamp;pressure;altitude;pressure_sealevel;temperature;humidity
8637;BME280;4356;49.068;8.658;2022-10-22T00:02:16;99541.66;;;22.00;50.06
8637;BME280;4356;49.068;8.658;2022-10-22T00:04:45;99548.25;;;21.99;49.79
8637;BME280;4356;49.068;8.658;2022-10-22T00:07:11;99549.06;;;21.99;49.97
8637;BME280;4356;49.068;8.658;2022-10-22T00:09:37;99549.06;;;21.99;49.99
8637;BME280;4356;49.068;8.658;2022-10-22T00:12:02;99540.88;;;21.99;49.58
8637;BME280;4356;49.068;8.658;2022-10-22T00:14:28;99541.09;;;21.98;50.00
8637;BME280;4356;49.068;8.658;2022-10-22T00:16:54;99549.31;;;21.98;49.86
8637;BME280;4356;49.068;8.658;2022-10-22T00:19:20;99548.50;;;21.97;49.94
8637;BME280;4356;49.068;8.658;2022-10-22T00:21:46;99543.81;;;21.98;49.78
8637;BME280;4356;49.068;8.658;2022-10-22T00:24:11;99538.03;;;21.94;49.76
8637;BME280;4356;49.068;8.658;2022-10-22T00:26:37;99533.97;;;21.97;49.80
8637;BME280;4356;49.068;8.658;2022-10-22T00:29:04;99543.81;;;21.98;49.75
8637;BME280;4356;49.068;8.658;2022-10-22T00:31:30;99563.50;;;21.95;49.79
8637;BME280;4356;49.068;8.658;2022-10-22T00:33:56;99580.75;;;21.95;49.80
8637;BME280;4356;49.068;8.658;2022-10-22T00:36:21;99581.00;;;21.94;49.65
8637;BME280;4356;49.068;8.658;2022-10-22T00:38:47;99597.75;;;21.97;49.57
8637;BME280;4356;49.068;8.658;2022-10-22T00:41:13;99599.91;;;21.95;49.75
8637;BME280;4356;49.068;8.658;2022-10-22T00:44:02;99606.75;;;21.98;49.64
8637;BME280;4356;49.068;8.658;2022-10-22T00:46:28;99601.22;;;21.93;49.68
8637;BME280;4356;49.068;8.658;2022-10-22T00:48:56;99610.00;;;21.95;49.75
8637;BME280;4356;49.068;8.658;2022-10-22T00:51:25;99592.75;;;21.94;49.68
8637;BME280;4356;49.068;8.658;2022-10-22T00:53:59;99589.44;;;21.92;49.79
8637;BME280;4356;49.068;8.658;2022-10-22T00:56:26;99591.63;;;21.90;49.69
8637;BME280;4356;49.068;8.658;2022-10-22T00:58:55;99595.50;;;21.94;49.85
8637;BME280;4356;49.068;8.658;2022-10-22T01:01:28;99591.13;;;21.93;49.76
8637;BME280;4356;49.068;8.658;2022-10-22T01:03:55;99590.84;;;21.95;49.81
8637;BME280;4356;49.068;8.658;2022-10-22T01:06:24;99587.28;;;21.94;49.84
8637;BME280;4356;49.068;8.658;2022-10-22T01:09:18;99589.44;;;21.92;49.85
8637;BME280;4356;49.068;8.658;2022-10-22T01:15:21;99567.81;;;21.91;49.82
8637;BME280;4356;49.068;8.658;2022-10-22T01:17:58;99563.69;;;21.88;49.95
8637;BME280;4356;49.068;8.658;2022-10-22T01:20:38;99571.91;;;21.88;50.05
8637;BME280;4356;49.068;8.658;2022-10-22T01:26:05;99590.22;;;21.88;50.04
8637;BME280;4356;49.068;8.658;2022-10-22T01:31:16;99581.41;;;21.86;49.99
8637;BME280;4356;49.068;8.658;2022-10-22T01:33:43;99576.72;;;21.81;50.18
8637;BME280;4356;49.068;8.658;2022-10-22T01:36:11;99584.66;;;21.83;50.02
8637;BME280;4356;49.068;8.658;2022-10-22T01:38:39;99588.00;;;21.85;49.98
8637;BME280;4356;49.068;8.658;2022-10-22T01:41:06;99597.84;;;21.86;50.08
8637;BME280;4356;49.068;8.658;2022-10-22T01:43:32;99609.88;;;21.85;50.00
8637;BME280;4356;49.068;8.658;2022-10-22T01:46:00;99615.56;;;21.83;50.21
8637;BME280;4356;49.068;8.658;2022-10-22T01:49:08;99641.34;;;21.87;49.87
8637;BME280;4356;49.068;8.658;2022-10-22T01:52:13;99650.91;;;21.85;50.04
8637;BME280;4356;49.068;8.658;2022-10-22T01:57:32;99666.75;;;21.83;49.81
8637;BME280;4356;49.068;8.658;2022-10-22T02:00:09;99669.47;;;21.83;50.04
8637;BME280;4356;49.068;8.658;2022-10-22T02:05:27;99668.63;;;21.82;49.84
8637;BME280;4356;49.068;8.658;2022-10-22T02:08:00;99664.25;;;21.81;49.89
8637;BME280;4356;49.068;8.658;2022-10-22T02:10:28;99650.56;;;21.81;50.19
8637;BME280;4356;49.068;8.658;2022-10-22T02:12:55;99642.59;;;21.80;49.98
8637;BME280;4356;49.068;8.658;2022-10-22T02:15:23;99628.69;;;21.81;49.90
8637;BME280;4356;49.068;8.658;2022-10-22T02:17:50;99613.34;;;21.80;49.95
8637;BME280;4356;49.068;8.658;2022-10-22T02:20:25;99614.19;;;21.81;49.81
8637;BME280;4356;49.068;8.658;2022-10-22T02:22:52;99605.41;;;21.79;50.10
8637;BME280;4356;49.068;8.658;2022-10-22T02:25:20;99594.44;;;21.79;50.10
8637;BME280;4356;49.068;8.658;2022-10-22T02:30:22;99576.34;;;21.78;50.13
8637;BME280;4356;49.068;8.658;2022-10-22T02:35:33;99542.88;;;21.71;50.11
8637;BME280;4356;49.068;8.658;2022-10-22T02:38:00;99552.50;;;21.73;50.24
8637;BME280;4356;49.068;8.658;2022-10-22T02:40:27;99547.03;;;21.73;50.19
8637;BME280;4356;49.068;8.658;2022-10-22T02:42:55;99543.69;;;21.71;50.39
8637;BME280;4356;49.068;8.658;2022-10-22T02:45:20;99544.88;;;21.75;50.05
8637;BME280;4356;49.068;8.658;2022-10-22T02:47:46;99543.44;;;21.73;50.28
8637;BME280;4356;49.068;8.658;2022-10-22T02:50:12;99512.97;;;21.64;50.11
8637;BME280;4356;49.068;8.658;2022-10-22T02:52:38;99510.88;;;21.71;50.11
8637;BME280;4356;49.068;8.658;2022-10-22T02:55:04;99540.47;;;21.74;50.20
8637;BME280;4356;49.068;8.658;2022-10-22T02:57:30;99539.56;;;21.69;50.08
8637;BME280;4356;49.068;8.658;2022-10-22T02:59:55;99530.28;;;21.70;50.20
8637;BME280;4356;49.068;8.658;2022-10-22T03:02:21;99535.50;;;21.71;50.17
8637;BME280;4356;49.068;8.658;2022-10-22T03:04:46;99548.91;;;21.73;50.10
8637;BME280;4356;49.068;8.658;2022-10-22T03:07:12;99545.59;;;21.71;50.13
8637;BME280;4356;49.068;8.658;2022-10-22T03:09:37;99546.44;;;21.71;49.93
8637;BME280;4356;49.068;8.658;2022-10-22T03:12:03;99542.06;;;21.70;50.06
8637;BME280;4356;49.068;8.658;2022-10-22T03:14:29;99525.66;;;21.70;49.72
8637;BME280;4356;49.068;8.658;2022-10-22T03:16:55;99537.16;;;21.72;49.70
8637;BME280;4356;49.068;8.658;2022-10-22T03:19:20;99534.66;;;21.71;50.02
8637;BME280;4356;49.068;8.658;2022-10-22T03:21:52;99552.75;;;21.72;50.13
8637;BME280;4356;49.068;8.658;2022-10-22T03:24:30;99523.72;;;21.71;50.08
8637;BME280;4356;49.068;8.658;2022-10-22T03:26:58;99510.88;;;21.71;49.81
8637;BME280;4356;49.068;8.658;2022-10-22T03:29:25;99502.03;;;21.64;49.99
8637;BME280;4356;49.068;8.658;2022-10-22T03:31:52;99531.13;;;21.70;50.03
8637;BME280;4356;49.068;8.658;2022-10-22T03:34:18;99562.84;;;21.71;50.00
8637;BME280;4356;49.068;8.658;2022-10-22T03:36:44;99562.25;;;21.69;49.97
8637;BME280;4356;49.068;8.658;2022-10-22T03:39:12;99570.00;;;21.72;49.76
8637;BME280;4356;49.068;8.658;2022-10-22T03:41:39;99564.41;;;21.67;49.84
8637;BME280;4356;49.068;8.658;2022-10-22T03:44:05;99578.69;;;21.69;49.75
8637;BME280;4356;49.068;8.658;2022-10-22T03:46:31;99579.78;;;21.68;50.04
8637;BME280;4356;49.068;8.658;2022-10-22T03:48:57;99577.63;;;21.70;49.93
8637;BME280;4356;49.068;8.658;2022-10-22T03:51:25;99570.41;;;21.64;50.12
8637;BME280;4356;49.068;8.658;2022-10-22T03:53:51;99573.78;;;21.71;50.05
8637;BME280;4356;49.068;8.658;2022-10-22T03:56:17;99579.50;;;21.70;49.72
8637;BME280;4356;49.068;8.658;2022-10-22T03:58:43;99572.03;;;21.65;49.85
8637;BME280;4356;49.068;8.658;2022-10-22T04:01:10;99581.34;;;21.64;49.89
8637;BME280;4356;49.068;8.658;2022-10-22T04:03:38;99592.84;;;21.66;50.01
8637;BME280;4356;49.068;8.658;2022-10-22T04:06:09;99587.66;;;21.65;49.99
8637;BME280;4356;49.068;8.658;2022-10-22T04:08:37;99591.44;;;21.64;49.90
8637;BME280;4356;49.068;8.658;2022-10-22T04:11:03;99586.81;;;21.64;49.65
8637;BME280;4356;49.068;8.658;2022-10-22T04:13:28;99584.00;;;21.59;49.83
8637;BME280;4356;49.068;8.658;2022-10-22T04:15:54;99592.78;;;21.61;49.48
8637;BME280;4356;49.068;8.658;2022-10-22T04:18:21;99607.28;;;21.62;49.78
8637;BME280;4356;49.068;8.658;2022-10-22T04:20:47;99605.56;;;21.56;49.69
8637;BME280;4356;49.068;8.658;2022-10-22T04:23:13;99614.41;;;21.63;49.81
8637;BME280;4356;49.068;8.658;2022-10-22T04:25:39;99613.00;;;21.60;49.82
8637;BME280;4356;49.068;8.658;2022-10-22T04:28:06;99606.69;;;21.60;49.65
8637;BME280;4356;49.068;8.658;2022-10-22T04:30:33;99620.13;;;21.61;49.33
8637;BME280;4356;49.068;8.658;2022-10-22T04:32:58;99620.13;;;21.61;49.45
8637;BME280;4356;49.068;8.658;2022-10-22T04:35:24;99620.13;;;21.61;49.10
8637;BME280;4356;49.068;8.658;2022-10-22T04:37:49;99621.19;;;21.60;49.37
8637;BME280;4356;49.068;8.658;2022-10-22T04:40:15;99640.34;;;21.60;49.65
8637;BME280;4356;49.068;8.658;2022-10-22T04:42:40;99643.91;;;21.61;49.76
8637;BME280;4356;49.068;8.658;2022-10-22T04:45:06;99633.22;;;21.59;49.91
8637;BME280;4356;49.068;8.658;2022-10-22T04:47:32;99644.97;;;21.60;49.89
8637;BME280;4356;49.068;8.658;2022-10-22T04:49:58;99644.97;;;21.60;49.72
8637;BME280;4356;49.068;8.658;2022-10-22T04:52:23;99641.69;;;21.58;49.73
8637;BME280;4356;49.068;8.658;2022-10-22T04:54:49;99650.09;;;21.56;49.75
8637;BME280;4356;49.068;8.658;2022-10-22T04:57:14;99655.91;;;21.60;49.73
8637;BME280;4356;49.068;8.658;2022-10-22T04:59:40;99655.56;;;21.56;49.84
8637;BME280;4356;49.068;8.658;2022-10-22T05:02:05;99662.97;;;21.56;49.90
8637;BME280;4356;49.068;8.658;2022-10-22T05:04:31;99669.25;;;21.56;49.94
8637;BME280;4356;49.068;8.658;2022-10-22T05:06:56;99657.97;;;21.52;50.06
8637;BME280;4356;49.068;8.658;2022-10-22T05:09:22;99668.44;;;21.56;49.83
8637;BME280;4356;49.068;8.658;2022-10-22T05:11:49;99672.47;;;21.53;50.01
8637;BME280;4356;49.068;8.658;2022-10-22T05:14:26;99685.09;;;21.54;49.90
8637;BME280;4356;49.068;8.658;2022-10-22T05:16:51;99696.03;;;21.54;50.15
8637;BME280;4356;49.068;8.658;2022-10-22T05:19:20;99687.84;;;21.54;50.05
8637;BME280;4356;49.068;8.658;2022-10-22T05:21:48;99691.63;;;21.53;49.93
8637;BME280;4356;49.068;8.658;2022-10-22T05:24:14;99689.97;;;21.52;49.77
8637;BME280;4356;49.068;8.658;2022-10-22T05:26:40;99697.09;;;21.53;50.01
8637;BME280;4356;49.068;8.658;2022-10-22T05:29:05;99696.50;;;21.51;49.81
8637;BME280;4356;49.068;8.658;2022-10-22T05:31:31;99707.19;;;21.52;49.81
8637;BME280;4356;49.068;8.658;2022-10-22T05:33:57;99708.63;;;21.55;49.88
8637;BME280;4356;49.068;8.658;2022-10-22T05:36:22;99714.59;;;21.52;50.16
8637;BME280;4356;49.068;8.658;2022-10-22T05:38:49;99711.59;;;21.54;49.83
8637;BME280;4356;49.068;8.658;2022-10-22T05:41:17;99717.66;;;21.56;49.89
8637;BME280;4356;49.068;8.658;2022-10-22T05:43:43;99718.72;;;21.55;50.26
8637;BME280;4356;49.068;8.658;2022-10-22T05:46:11;99724.19;;;21.55;49.91
8637;BME280;4356;49.068;8.658;2022-10-22T05:48:37;99723.75;;;21.46;50.00
8637;BME280;4356;49.068;8.658;2022-10-22T05:51:07;99748.00;;;21.54;50.19
8637;BME280;4356;49.068;8.658;2022-10-22T05:53:34;99727.00;;;21.43;50.16
8637;BME280;4356;49.068;8.658;2022-10-22T05:56:12;99750.13;;;21.52;50.08
8637;BME280;4356;49.068;8.658;2022-10-22T05:58:38;99746.81;;;21.50;50.36
8637;BME280;4356;49.068;8.658;2022-10-22T06:01:10;99745.72;;;21.51;50.04
8637;BME280;4356;49.068;8.658;2022-10-22T06:03:36;99748.38;;;21.46;50.26
8637;BME280;4356;49.068;8.658;2022-10-22T06:06:06;99753.59;;;21.47;50.19
8637;BME280;4356;49.068;8.658;2022-10-22T06:08:35;99753.59;;;21.47;50.02
8637;BME280;4356;49.068;8.658;2022-10-22T06:11:01;99765.13;;;21.49;50.17
8637;BME280;4356;49.068;8.658;2022-10-22T06:13:26;99758.00;;;21.48;50.39
8637;BME280;4356;49.068;8.658;2022-10-22T06:15:52;99764.28;;;21.49;49.95
8637;BME280;4356;49.068;8.658;2022-10-22T06:18:18;99771.41;;;21.50;49.87
8637;BME280;4356;49.068;8.658;2022-10-22T06:20:44;99780.81;;;21.54;49.83
8637;BME280;4356;49.068;8.658;2022-10-22T06:23:10;99768.44;;;21.52;49.93
8637;BME280;4356;49.068;8.658;2022-10-22T06:25:35;99765.19;;;21.55;49.94
8637;BME280;4356;49.068;8.658;2022-10-22T06:28:01;99778.88;;;21.55;49.85
8637;BME280;4356;49.068;8.658;2022-10-22T06:30:26;99788.00;;;21.60;49.78
8637;BME280;4356;49.068;8.658;2022-10-22T06:32:52;99781.34;;;21.56;49.86
8637;BME280;4356;49.068;8.658;2022-10-22T06:35:17;99790.75;;;21.60;49.94
8637;BME280;4356;49.068;8.658;2022-10-22T06:37:43;99790.06;;;21.53;49.87
8637;BME280;4356;49.068;8.658;2022-10-22T06:40:26;99801.22;;;21.63;49.83
8637;BME280;4356;49.068;8.658;2022-10-22T06:42:51;99807.25;;;21.65;49.73
8637;BME280;4356;49.068;8.658;2022-10-22T06:45:17;99809.75;;;21.67;50.02
8637;BME280;4356;49.068;8.658;2022-10-22T06:47:42;99806.44;;;21.65;49.98
8637;BME280;4356;49.068;8.658;2022-10-22T06:50:08;99808.91;;;21.66;49.90
8637;BME280;4356;49.068;8.658;2022-10-22T06:52:34;99809.97;;;21.65;49.85
8637;BME280;4356;49.068;8.658;2022-10-22T06:54:59;99803.34;;;21.61;49.96
8637;BME280;4356;49.068;8.658;2022-10-22T06:57:25;99820.19;;;21.70;49.85
8637;BME280;4356;49.068;8.658;2022-10-22T06:59:50;99822.69;;;21.71;49.78
8637;BME280;4356;49.068;8.658;2022-10-22T07:02:16;99816.63;;;21.69;49.91
8637;BME280;4356;49.068;8.658;2022-10-22T07:04:41;99822.69;;;21.71;49.77
8637;BME280;4356;49.068;8.658;2022-10-22T07:07:07;99825.16;;;21.73;49.52
8637;BME280;4356;49.068;8.658;2022-10-22T07:09:33;99835.28;;;21.72;49.72
8637;BME280;4356;49.068;8.658;2022-10-22T07:11:58;99838.84;;;21.73;49.65
8637;BME280;4356;49.068;8.658;2022-10-22T07:14:24;99838.03;;;21.72;49.64
8637;BME280;4356;49.068;8.658;2022-10-22T07:16:49;99842.41;;;21.73;49.63
8637;BME280;4356;49.068;8.658;2022-10-22T07:19:15;99853.69;;;21.77;49.47
8637;BME280;4356;49.068;8.658;2022-10-22T07:21:40;99855.59;;;21.76;49.69
8637;BME280;4356;49.068;8.658;2022-10-22T07:24:06;99848.72;;;21.74;49.44
8637;BME280;4356;49.068;8.658;2022-10-22T07:26:32;99840.19;;;21.70;49.55
8637;BME280;4356;49.068;8.658;2022-10-22T07:28:59;99870.47;;;21.80;49.45
8637;BME280;4356;49.068;8.658;2022-10-22T07:31:24;99861.91;;;21.77;49.68
8637;BME280;4356;49.068;8.658;2022-10-22T07:33:50;99868.22;;;21.77;49.52
8637;BME280;4356;49.068;8.658;2022-10-22T07:36:16;99862.66;;;21.72;49.38
8637;BME280;4356;49.068;8.658;2022-10-22T07:38:47;99883.31;;;21.80;49.39
8637;BME280;4356;49.068;8.658;2022-10-22T07:41:14;99883.66;;;21.83;49.30
8637;BME280;4356;49.068;8.658;2022-10-22T07:43:40;99876.06;;;21.74;49.53
8637;BME280;4356;49.068;8.658;2022-10-22T07:46:06;99904.25;;;21.86;49.47
8637;BME280;4356;49.068;8.658;2022-10-22T07:48:36;99897.94;;;21.85;49.52
8637;BME280;4356;49.068;8.658;2022-10-22T07:51:03;99900.91;;;21.84;49.48
8637;BME280;4356;49.068;8.658;2022-10-22T07:53:29;99897.13;;;21.85;49.51
8637;BME280;4356;49.068;8.658;2022-10-22T07:55:54;99908.88;;;21.85;49.54
8637;BME280;4356;49.068;8.658;2022-10-22T07:58:21;99894.97;;;21.87;49.73
8637;BME280;4356;49.068;8.658;2022-10-22T08:00:47;99889.00;;;21.78;49.55
8637;BME280;4356;49.068;8.658;2022-10-22T08:03:15;99902.44;;;21.91;49.62
8637;BME280;4356;49.068;8.658;2022-10-22T08:05:41;99882.84;;;21.83;49.51
8637;BME280;4356;49.068;8.658;2022-10-22T08:08:11;99895.88;;;21.92;49.69
8637;BME280;4356;49.068;8.658;2022-10-22T08:10:37;99890.41;;;21.92;49.30
8637;BME280;4356;49.068;8.658;2022-10-22T08:13:04;99895.16;;;21.97;49.45
8637;BME280;4356;49.068;8.658;2022-10-22T08:15:30;99894.06;;;21.98;49.35
8637;BME280;4356;49.068;8.658;2022-10-22T08:17:55;99887.09;;;21.90;49.15
8637;BME280;4356;49.068;8.658;2022-10-22T08:20:21;99896.59;;;21.99;49.04
8637;BME280;4356;49.068;8.658;2022-10-22T08:22:46;99900.81;;;22.07;49.16
8637;BME280;4356;49.068;8.658;2022-10-22T08:25:12;99893.19;;;22.09;49.31
8637;BME280;4356;49.068;8.658;2022-10-22T08:27:38;99898.78;;;22.14;48.94
8637;BME280;4356;49.068;8.658;2022-10-22T08:30:04;99902.19;;;22.21;48.69
8637;BME280;4356;49.068;8.658;2022-10-22T08:32:31;99909.16;;;22.28;48.80
8637;BME280;4356;49.068;8.658;2022-10-22T08:34:56;99902.09;;;22.32;48.50
8637;BME280;4356;49.068;8.658;2022-10-22T08:37:22;99908.38;;;22.44;48.60
8637;BME280;4356;49.068;8.658;2022-10-22T08:39:47;99899.72;;;22.52;48.03
8637;BME280;4356;49.068;8.658;2022-10-22T08:50:11;99926.75;;;22.77;47.39
8637;BME280;4356;49.068;8.658;2022-10-22T08:52:43;99925.47;;;22.85;47.06
8637;BME280;4356;49.068;8.658;2022-10-22T08:55:14;99921.75;;;22.91;46.92
8637;BME280;4356;49.068;8.658;2022-10-22T08:57:50;99918.50;;;22.94;46.91
8637;BME280;4356;49.068;8.658;2022-10-22T09:00:21;99921.34;;;22.99;46.95
8637;BME280;4356;49.068;8.658;2022-10-22T09:05:47;99929.63;;;23.04;46.57
8637;BME280;4356;49.068;8.658;2022-10-22T09:08:21;99932.44;;;23.09;46.40
8637;BME280;4356;49.068;8.658;2022-10-22T09:10:52;99934.69;;;23.12;46.22
8637;BME280;4356;49.068;8.658;2022-10-22T09:13:21;99948.47;;;23.17;45.98
8637;BME280;4356;49.068;8.658;2022-10-22T09:15:56;99947.97;;;23.20;46.22
8637;BME280;4356;49.068;8.658;2022-10-22T09:23:55;99951.47;;;23.32;46.32
8637;BME280;4356;49.068;8.658;2022-10-22T09:26:24;99948.50;;;23.33;46.55
8637;BME280;4356;49.068;8.658;2022-10-22T09:28:51;99949.88;;;23.36;46.36
8637;BME280;4356;49.068;8.658;2022-10-22T09:31:17;99957.38;;;23.40;46.39
8637;BME280;4356;49.068;8.658;2022-10-22T09:33:45;99959.91;;;23.47;46.11
8637;BME280;4356;49.068;8.658;2022-10-22T09:36:16;99961.56;;;23.48;46.47
8637;BME280;4356;49.068;8.658;2022-10-22T09:38:51;99962.97;;;23.51;46.26
8637;BME280;4356;49.068;8.658;2022-10-22T09:41:24;99958.66;;;23.55;46.19
8637;BME280;4356;49.068;8.658;2022-10-22T09:43:50;99967.72;;;23.55;46.11
8637;BME280;4356;49.068;8.658;2022-10-22T09:46:26;99969.38;;;23.56;46.07
8637;BME280;4356;49.068;8.658;2022-10-22T09:49:09;99961.47;;;23.60;46.32
8637;BME280;4356;49.068;8.658;2022-10-22T09:51:56;99972.75;;;23.63;46.03
8637;BME280;4356;49.068;8.658;2022-10-22T09:54:37;99977.22;;;23.69;46.17
8637;BME280;4356;49.068;8.658;2022-10-22T09:57:15;99980.88;;;23.75;45.94
8637;BME280;4356;49.068;8.658;2022-10-22T09:59:43;99953.59;;;23.68;45.78
8637;BME280;4356;49.068;8.658;2022-10-22T10:02:22;99980.19;;;23.84;45.73
8637;BME280;4356;49.068;8.658;2022-10-22T10:04:51;99980.25;;;23.89;45.58
8637;BME280;4356;49.068;8.658;2022-10-22T10:07:31;99973.41;;;23.92;45.44
8637;BME280;4356;49.068;8.658;2022-10-22T10:09:57;99981.13;;;23.95;45.44
8637;BME280;4356;49.068;8.658;2022-10-22T10:18:03;99992.09;;;24.11;45.23
8637;BME280;4356;49.068;8.658;2022-10-22T10:20:39;99983.91;;;24.16;45.14
8637;BME280;4356;49.068;8.658;2022-10-22T10:34:09;99984.06;;;24.31;45.12
8637;BME280;4356;49.068;8.658;2022-10-22T10:48:08;99999.31;;;24.44;44.86
8637;BME280;4356;49.068;8.658;2022-10-22T10:51:07;100005.94;;;24.48;45.34
8637;BME280;4356;49.068;8.658;2022-10-22T11:07:37;99991.53;;;24.63;45.01
8637;BME280;4356;49.068;8.658;2022-10-22T11:10:27;99993.50;;;24.67;45.34
8637;BME280;4356;49.068;8.658;2022-10-22T11:13:03;99991.81;;;24.66;44.92
8637;BME280;4356;49.068;8.658;2022-10-22T11:15:36;99991.56;;;24.68;44.82
8637;BME280;4356;49.068;8.658;2022-10-22T11:24:02;99975.59;;;24.65;44.46
8637;BME280;4356;49.068;8.658;2022-10-22T11:29:04;99981.09;;;24.65;44.81
8637;BME280;4356;49.068;8.658;2022-10-22T11:31:31;99975.06;;;24.68;44.60
8637;BME280;4356;49.068;8.658;2022-10-22T11:34:26;99976.53;;;24.70;44.38
8637;BME280;4356;49.068;8.658;2022-10-22T11:36:50;99984.50;;;24.72;44.65
8637;BME280;4356;49.068;8.658;2022-10-22T11:39:43;99979.31;;;24.75;44.82
8637;BME280;4356;49.068;8.658;2022-10-22T11:42:17;99974.38;;;24.77;44.73
8637;BME280;4356;49.068;8.658;2022-10-22T11:44:48;99975.50;;;24.76;44.48
8637;BME280;4356;49.068;8.658;2022-10-22T11:47:24;99976.63;;;24.80;44.31
8637;BME280;4356;49.068;8.658;2022-10-22T11:49:57;99968.13;;;24.82;44.07
8637;BME280;4356;49.068;8.658;2022-10-22T11:52:57;99972.50;;;24.83;44.28
8637;BME280;4356;49.068;8.658;2022-10-22T12:01:29;99963.69;;;24.81;43.89
8637;BME280;4356;49.068;8.658;2022-10-22T12:06:51;99952.41;;;24.77;43.87
8637;BME280;4356;49.068;8.658;2022-10-22T12:09:18;99953.22;;;24.78;43.66
8637;BME280;4356;49.068;8.658;2022-10-22T12:11:46;99953.22;;;24.78;43.83
8637;BME280;4356;49.068;8.658;2022-10-22T12:14:25;99941.09;;;24.74;44.14
8637;BME280;4356;49.068;8.658;2022-10-22T12:19:26;99958.81;;;24.88;43.85
8637;BME280;4356;49.068;8.658;2022-10-22T12:21:56;99956.88;;;24.88;44.04
8637;BME280;4356;49.068;8.658;2022-10-22T12:24:23;99966.81;;;24.89;43.75
8637;BME280;4356;49.068;8.658;2022-10-22T12:26:50;99941.72;;;24.86;43.53
8637;BME280;4356;49.068;8.658;2022-10-22T12:29:18;99940.69;;;24.92;43.56
8637;BME280;4356;49.068;8.658;2022-10-22T12:31:46;99937.09;;;24.91;43.50
8637;BME280;4356;49.068;8.658;2022-10-22T12:34:14;99941.25;;;24.94;43.59
8637;BME280;4356;49.068;8.658;2022-10-22T12:36:40;99936.34;;;24.96;43.04
8637;BME280;4356;49.068;8.658;2022-10-22T12:39:16;99931.66;;;24.96;43.43
8637;BME280;4356;49.068;8.658;2022-10-22T12:41:42;99929.72;;;24.97;43.32
8637;BME280;4356;49.068;8.658;2022-10-22T12:44:13;99922.31;;;24.97;43.60
8637;BME280;4356;49.068;8.658;2022-10-22T12:46:40;99918.16;;;24.95;43.31
8637;BME280;4356;49.068;8.658;2022-10-22T12:51:40;99928.69;;;25.03;43.38
8637;BME280;4356;49.068;8.658;2022-10-22T12:54:11;99926.78;;;25.03;42.90
8637;BME280;4356;49.068;8.658;2022-10-22T12:56:38;99928.69;;;25.03;42.95
8637;BME280;4356;49.068;8.658;2022-10-22T12:59:11;99926.22;;;25.06;42.78
8637;BME280;4356;49.068;8.658;2022-10-22T13:01:41;99924.06;;;25.08;43.01
8637;BME280;4356;49.068;8.658;2022-10-22T13:09:45;99930.69;;;25.12;42.60
8637;BME280;4356;49.068;8.658;2022-10-22T13:12:12;99937.03;;;25.13;42.69
8637;BME280;4356;49.068;8.658;2022-10-22T13:14:45;99934.56;;;25.16;42.55
8637;BME280;4356;49.068;8.658;2022-10-22T13:17:16;99927.41;;;25.15;42.15
8637;BME280;4356;49.068;8.658;2022-10-22T13:25:03;99922.75;;;25.21;42.37
8637;BME280;4356;49.068;8.658;2022-10-22T13:27:29;99921.41;;;25.23;42.61
8637;BME280;4356;49.068;8.658;2022-10-22T13:30:24;99921.97;;;25.25;42.09
8637;BME280;4356;49.068;8.658;2022-10-22T13:32:52;99926.38;;;25.26;42.24
8637;BME280;4356;49.068;8.658;2022-10-22T13:35:22;99909.59;;;25.28;42.33
8637;BME280;4356;49.068;8.658;2022-10-22T13:37:48;99916.78;;;25.29;42.32
8637;BME280;4356;49.068;8.658;2022-10-22T13:40:14;99917.56;;;25.29;42.27
8637;BME280;4356;49.068;8.658;2022-10-22T13:42:43;99913.47;;;25.32;42.21
8637;BME280;4356;49.068;8.658;2022-10-22T13:45:08;99907.97;;;25.32;42.49
8637;BME280;4356;49.068;8.658;2022-10-22T13:47:34;99912.13;;;25.34;42.62
8637;BME280;4356;49.068;8.658;2022-10-22T13:50:02;99915.69;;;25.35;42.31
8637;BME280;4356;49.068;8.658;2022-10-22T13:54:57;99922.34;;;25.39;41.84
8637;BME280;4356;49.068;8.658;2022-10-22T13:57:23;99917.13;;;25.37;42.03
8637;BME280;4356;49.068;8.658;2022-10-22T13:59:49;99907.75;;;25.38;41.56
8637;BME280;4356;49.068;8.658;2022-10-22T14:02:15;99915.22;;;25.43;41.67
8637;BME280;4356;49.068;8.658;2022-10-22T14:04:41;99910.78;;;25.42;41.76
8637;BME280;4356;49.068;8.658;2022-10-22T14:07:12;99895.41;;;25.41;41.68
8637;BME280;4356;49.068;8.658;2022-10-22T14:09:38;99916.34;;;25.47;41.60
8637;BME280;4356;49.068;8.658;2022-10-22T14:12:15;99906.41;;;25.46;41.15
8637;BME280;4356;49.068;8.658;2022-10-22T14:14:40;99905.34;;;25.47;41.27
8637;BME280;4356;49.068;8.658;2022-10-22T14:17:12;99905.34;;;25.47;41.56
8637;BME280;4356;49.068;8.658;2022-10-22T14:19:42;99916.91;;;25.49;41.10
8637;BME280;4356;49.068;8.658;2022-10-22T14:22:15;99906.16;;;25.48;41.23
8637;BME280;4356;49.068;8.658;2022-10-22T14:24:42;99910.88;;;25.52;41.38
8637;BME280;4356;49.068;8.658;2022-10-22T14:27:10;99909.75;;;25.53;41.13
8637;BME280;4356;49.068;8.658;2022-10-22T14:29:36;99915.31;;;25.58;41.06
8637;BME280;4356;49.068;8.658;2022-10-22T14:32:02;99910.03;;;25.57;40.83
8637;BME280;4356;49.068;8.658;2022-10-22T14:34:27;99913.63;;;25.57;40.94
8637;BME280;4356;49.068;8.658;2022-10-22T14:36:53;99921.09;;;25.62;40.90
8637;BME280;4356;49.068;8.658;2022-10-22T14:39:18;99916.69;;;25.61;41.33
8637;BME280;4356;49.068;8.658;2022-10-22T14:41:46;99915.59;;;25.62;40.98
8637;BME280;4356;49.068;8.658;2022-10-22T14:44:12;99918.63;;;25.65;41.12
8637;BME280;4356;49.068;8.658;2022-10-22T14:46:38;99923.88;;;25.67;41.24
8637;BME280;4356;49.068;8.658;2022-10-22T14:49:06;99911.44;;;25.59;41.06
8637;BME280;4356;49.068;8.658;2022-10-22T14:51:32;99904.84;;;25.60;40.95
8637;BME280;4356;49.068;8.658;2022-10-22T14:53:57;99908.44;;;25.66;41.10
8637;BME280;4356;49.068;8.658;2022-10-22T14:56:23;99913.69;;;25.67;41.16
8637;BME280;4356;49.068;8.658;2022-10-22T14:58:48;99914.50;;;25.68;41.49
8637;BME280;4356;49.068;8.658;2022-10-22T15:01:14;99923.03;;;25.71;41.65
8637;BME280;4356;49.068;8.658;2022-10-22T15:03:40;99917.25;;;25.68;41.38
8637;BME280;4356;49.068;8.658;2022-10-22T15:06:06;99924.72;;;25.72;41.15
8637;BME280;4356;49.068;8.658;2022-10-22T15:08:31;99929.38;;;25.72;41.40
8637;BME280;4356;49.068;8.658;2022-10-22T15:11:05;99931.06;;;25.73;41.36
8637;BME280;4356;49.068;8.658;2022-10-22T15:13:32;99926.63;;;25.72;41.07
8637;BME280;4356;49.068;8.658;2022-10-22T15:15:58;99921.41;;;25.70;41.56
8637;BME280;4356;49.068;8.658;2022-10-22T15:18:25;99926.91;;;25.70;41.73
8637;BME280;4356;49.068;8.658;2022-10-22T15:20:58;99924.16;;;25.70;41.30
8637;BME280;4356;49.068;8.658;2022-10-22T15:23:24;99920.28;;;25.66;41.66
8637;BME280;4356;49.068;8.658;2022-10-22T15:25:51;99915.63;;;25.67;41.56